createdAt,value
2022-11-01T00:02:10.157Z,37.28
2022-11-01T00:04:37.612Z,32.97
2022-11-01T00:07:05.280Z,29.25
2022-11-01T00:09:32.682Z,24.80
2022-11-01T00:11:59.878Z,30.42
2022-11-01T00:14:27.108Z,23.08
2022-11-01T00:16:54.246Z,25.63
2022-11-01T00:19:21.344Z,26.88
2022-11-01T00:21:48.505Z,20.10
2022-11-01T00:24:15.693Z,22.05
2022-11-01T00:26:42.950Z,22.98
2022-11-01T00:29:11.838Z,22.67
2022-11-01T00:31:38.993Z,19.42
2022-11-01T00:34:06.870Z,22.50
2022-11-01T00:36:35.303Z,20.77
2022-11-01T00:39:03.103Z,23.58
2022-11-01T00:41:30.206Z,17.52
2022-11-01T00:43:57.313Z,18.88
2022-11-01T00:46:24.399Z,16.75
2022-11-01T00:48:51.504Z,16.27
2022-11-01T00:51:18.665Z,23.58
2022-11-01T00:53:45.716Z,17.35
2022-11-01T00:56:12.969Z,16.75
2022-11-01T00:58:40.083Z,16.75
2022-11-01T01:01:07.308Z,17.00
2022-11-01T01:03:34.704Z,15.65
2022-11-01T01:06:01.934Z,17.92
2022-11-01T01:08:29.261Z,15.82
2022-11-01T01:10:56.391Z,15.50
2022-11-01T01:13:23.592Z,16.50
2022-11-01T01:15:50.744Z,15.32
2022-11-01T01:18:18.160Z,16.23
2022-11-01T01:20:45.313Z,17.20
2022-11-01T01:23:12.513Z,14.80
2022-11-01T01:25:41.745Z,14.05
2022-11-01T01:28:09.378Z,12.45
2022-11-01T01:30:40.361Z,19.00
2022-11-01T01:33:07.567Z,13.85
2022-11-01T01:35:34.759Z,13.93
2022-11-01T01:38:02.021Z,13.57
2022-11-01T01:40:29.803Z,15.60
2022-11-01T01:42:56.991Z,12.90
2022-11-01T01:45:35.004Z,17.58
2022-11-01T01:48:20.200Z,12.60
2022-11-01T01:50:54.243Z,16.02
2022-11-01T01:53:30.143Z,13.00
2022-11-01T01:56:04.450Z,12.90
2022-11-01T01:58:39.827Z,10.80
2022-11-01T02:01:07.059Z,11.77
2022-11-01T02:03:36.442Z,9.35
2022-11-01T02:06:16.288Z,11.18
2022-11-01T02:08:46.684Z,13.43
2022-11-01T02:11:15.785Z,11.93
2022-11-01T02:13:43.100Z,9.95
2022-11-01T02:16:34.641Z,14.85
2022-11-01T02:19:26.790Z,10.68
2022-11-01T02:22:13.548Z,11.73
2022-11-01T02:25:10.943Z,11.20
2022-11-01T02:28:08.852Z,10.07
2022-11-01T02:30:59.545Z,9.70
2022-11-01T02:33:48.684Z,9.20
2022-11-01T02:36:23.584Z,10.95
2022-11-01T02:39:09.684Z,9.70
2022-11-01T02:41:45.077Z,10.90
2022-11-01T02:44:33.766Z,7.47
2022-11-01T02:47:02.683Z,11.38
2022-11-01T02:49:41.615Z,12.38
2022-11-01T02:52:13.379Z,9.15
2022-11-01T02:54:45.053Z,14.25
2022-11-01T02:57:50.469Z,15.05
2022-11-01T03:00:22.905Z,7.95
2022-11-01T03:02:56.174Z,9.43
2022-11-01T03:05:47.394Z,18.38
2022-11-01T03:08:22.837Z,10.30
2022-11-01T03:11:03.700Z,9.35
2022-11-01T03:13:53.807Z,10.98
2022-11-01T03:16:41.529Z,12.10
2022-11-01T03:19:43.757Z,11.93
2022-11-01T03:22:15.837Z,12.30
2022-11-01T03:24:42.864Z,8.75
2022-11-01T03:27:27.348Z,9.30
2022-11-01T03:30:07.774Z,8.23
2022-11-01T03:32:41.308Z,10.52
2022-11-01T03:35:11.893Z,6.68
2022-11-01T03:37:43.573Z,7.30
2022-11-01T03:40:13.357Z,7.45
2022-11-01T03:42:45.146Z,7.63
2022-11-01T03:45:15.516Z,8.90
2022-11-01T03:47:43.021Z,8.82
2022-11-01T03:50:13.137Z,8.93
2022-11-01T03:52:40.316Z,7.22
2022-11-01T03:55:20.254Z,7.70
2022-11-01T03:57:55.463Z,5.93
2022-11-01T04:00:25.231Z,7.35
2022-11-01T04:02:54.213Z,6.38
2022-11-01T04:05:22.893Z,7.53
2022-11-01T04:07:51.485Z,4.55
2022-11-01T04:10:20.246Z,5.53
2022-11-01T04:12:48.626Z,4.07
2022-11-01T04:15:35.514Z,6.30
2022-11-01T04:18:21.983Z,6.88
2022-11-01T04:20:49.912Z,6.60
2022-11-01T04:23:17.109Z,6.03
2022-11-01T04:25:47.361Z,4.75
2022-11-01T04:28:15.162Z,6.72
2022-11-01T04:30:42.731Z,3.97
2022-11-01T04:33:09.986Z,5.28
2022-11-01T04:35:38.148Z,6.95
2022-11-01T04:38:05.998Z,6.00
2022-11-01T04:40:34.338Z,4.43
2022-11-01T04:43:01.912Z,6.43
2022-11-01T04:45:29.147Z,6.47
2022-11-01T04:48:13.932Z,5.22
2022-11-01T04:50:42.018Z,5.45
2022-11-01T04:53:09.739Z,9.90
2022-11-01T04:55:37.010Z,5.47
2022-11-01T04:58:04.797Z,8.05
2022-11-01T05:00:33.259Z,9.85
2022-11-01T05:03:06.792Z,6.88
2022-11-01T05:05:34.921Z,6.93
2022-11-01T05:08:02.870Z,5.97
2022-11-01T05:10:31.153Z,9.68
2022-11-01T05:12:58.399Z,8.23
2022-11-01T05:15:25.732Z,5.88
2022-11-01T05:17:52.869Z,4.80
2022-11-01T05:20:20.183Z,8.48
2022-11-01T05:22:47.392Z,7.70
2022-11-01T05:25:14.993Z,7.63
2022-11-01T05:27:42.119Z,7.15
2022-11-01T05:30:10.299Z,9.35
2022-11-01T05:32:37.987Z,5.78
2022-11-01T05:35:06.161Z,5.25
2022-11-01T05:37:33.345Z,8.07
2022-11-01T05:40:00.429Z,6.45
2022-11-01T05:42:27.755Z,7.07
2022-11-01T05:44:54.817Z,4.88
2022-11-01T05:47:21.922Z,6.72
2022-11-01T05:49:49.045Z,6.75
2022-11-01T05:52:16.128Z,8.73
2022-11-01T05:54:43.208Z,7.43
2022-11-01T05:57:10.282Z,5.90
2022-11-01T05:59:37.417Z,5.43
2022-11-01T06:02:04.669Z,8.40
2022-11-01T06:04:31.891Z,4.50
2022-11-01T06:06:58.969Z,6.05
2022-11-01T06:09:26.049Z,6.28
2022-11-01T06:11:53.196Z,7.75
2022-11-01T06:14:20.337Z,7.28
2022-11-01T06:16:47.415Z,8.35
2022-11-01T06:19:14.517Z,5.47
2022-11-01T06:21:41.600Z,8.55
2022-11-01T06:24:11.179Z,5.05
2022-11-01T06:26:38.371Z,5.50
2022-11-01T06:29:05.951Z,6.90
2022-11-01T06:31:33.133Z,9.18
2022-11-01T06:34:00.222Z,9.07
2022-11-01T06:36:27.357Z,5.10
2022-11-01T06:38:54.445Z,9.25
2022-11-01T06:41:21.766Z,9.20
2022-11-01T06:43:50.086Z,6.10
2022-11-01T06:46:17.317Z,6.90
2022-11-01T06:48:47.491Z,7.75
2022-11-01T06:51:14.621Z,7.85
2022-11-01T06:53:41.705Z,5.95
2022-11-01T06:56:08.790Z,4.90
2022-11-01T06:58:35.899Z,6.07
2022-11-01T07:01:03.210Z,5.30
2022-11-01T07:03:30.400Z,4.90
2022-11-01T07:06:00.349Z,8.05
2022-11-01T07:08:27.456Z,7.65
2022-11-01T07:10:54.656Z,4.60
2022-11-01T07:13:21.780Z,7.32
2022-11-01T07:15:48.919Z,6.00
2022-11-01T07:18:16.021Z,7.45
2022-11-01T07:20:43.226Z,3.30
2022-11-01T07:23:13.584Z,7.20
2022-11-01T07:25:41.209Z,5.03
2022-11-01T07:28:08.860Z,6.32
2022-11-01T07:30:36.204Z,5.05
2022-11-01T07:33:05.519Z,5.55
2022-11-01T07:35:34.169Z,10.52
2022-11-01T07:38:03.813Z,6.35
2022-11-01T07:40:33.774Z,6.68
2022-11-01T07:43:01.329Z,7.03
2022-11-01T07:45:30.808Z,5.20
2022-11-01T07:48:06.336Z,5.20
2022-11-01T07:50:34.257Z,6.20
2022-11-01T07:53:05.525Z,6.28
2022-11-01T07:55:32.822Z,5.13
2022-11-01T07:58:00.437Z,5.53
2022-11-01T08:00:28.232Z,11.75
2022-11-01T08:03:04.018Z,4.47
2022-11-01T08:05:31.828Z,8.35
2022-11-01T08:07:59.632Z,8.05
2022-11-01T08:10:27.189Z,6.93
2022-11-01T08:13:21.424Z,7.82
2022-11-01T08:15:49.935Z,5.13
2022-11-01T08:18:18.075Z,8.95
2022-11-01T08:20:45.177Z,7.25
2022-11-01T08:23:12.701Z,9.52
2022-11-01T08:25:40.220Z,10.48
2022-11-01T08:28:11.111Z,6.55
2022-11-01T08:30:40.598Z,6.63
2022-11-01T08:33:07.893Z,9.93
2022-11-01T08:35:35.548Z,7.43
2022-11-01T08:38:05.736Z,8.32
2022-11-01T08:40:33.907Z,6.38
2022-11-01T08:43:01.837Z,5.47
2022-11-01T08:45:29.445Z,7.55
2022-11-01T08:48:00.994Z,7.90
2022-11-01T08:50:28.440Z,4.90
2022-11-01T08:52:55.625Z,11.40
2022-11-01T08:55:23.138Z,11.32
2022-11-01T08:57:50.559Z,6.47
2022-11-01T09:00:18.684Z,9.93
2022-11-01T09:02:46.139Z,9.02
2022-11-01T09:05:13.339Z,7.63
2022-11-01T09:07:40.762Z,11.00
2022-11-01T09:10:08.973Z,5.38
2022-11-01T09:12:36.955Z,7.32
2022-11-01T09:15:05.565Z,8.50
2022-11-01T09:17:32.657Z,10.73
2022-11-01T09:19:59.808Z,7.10
2022-11-01T09:22:27.080Z,9.27
2022-11-01T09:24:56.881Z,12.63
2022-11-01T09:27:24.492Z,12.98
2022-11-01T09:29:52.167Z,11.48
2022-11-01T09:32:19.481Z,14.13
2022-11-01T09:34:48.978Z,13.93
2022-11-01T09:37:16.744Z,13.68
2022-11-01T09:39:43.866Z,13.63
2022-11-01T09:42:25.514Z,15.90
2022-11-01T09:44:55.566Z,11.65
2022-11-01T09:47:26.010Z,11.82
2022-11-01T09:50:04.257Z,13.85
2022-11-01T09:52:31.545Z,14.00
2022-11-01T09:54:59.104Z,19.23
2022-11-01T09:57:28.874Z,14.38
2022-11-01T10:00:19.101Z,16.55
2022-11-01T10:02:58.245Z,15.32
2022-11-01T10:05:43.419Z,11.85
2022-11-01T10:08:31.633Z,11.45
2022-11-01T10:11:06.569Z,15.18
2022-11-01T10:14:10.736Z,14.32
2022-11-01T10:16:49.222Z,14.02
2022-11-01T10:19:18.961Z,12.43
2022-11-01T10:21:54.009Z,13.98
2022-11-01T10:24:38.935Z,16.73
2022-11-01T10:27:24.648Z,11.02
2022-11-01T10:30:03.090Z,11.27
2022-11-01T10:32:35.480Z,14.18
2022-11-01T10:35:14.793Z,13.10
2022-11-01T10:38:19.029Z,11.27
2022-11-01T10:41:21.482Z,11.15
2022-11-01T10:44:15.336Z,14.32
2022-11-01T10:52:28.275Z,12.93
2022-11-01T10:54:57.178Z,12.15
2022-11-01T10:57:34.863Z,13.95
2022-11-01T11:00:06.354Z,12.82
2022-11-01T11:02:38.249Z,9.85
2022-11-01T11:05:06.508Z,9.95
2022-11-01T11:07:33.680Z,12.07
2022-11-01T11:12:36.018Z,13.13
2022-11-01T11:15:11.177Z,14.70
2022-11-01T11:17:43.454Z,12.75
2022-11-01T11:20:11.710Z,16.88
2022-11-01T11:22:41.258Z,18.60
2022-11-01T11:25:16.331Z,12.25
2022-11-01T11:27:47.417Z,11.15
2022-11-01T11:30:27.564Z,16.45
2022-11-01T11:32:56.025Z,15.02
2022-11-01T11:35:27.534Z,12.50
2022-11-01T11:38:00.831Z,17.20
2022-11-01T11:40:43.107Z,15.27
2022-11-01T11:43:30.334Z,17.83
2022-11-01T11:46:05.976Z,16.08
2022-11-01T11:48:33.204Z,20.52
2022-11-01T11:51:03.275Z,15.52
2022-11-01T11:53:32.148Z,17.23
2022-11-01T11:56:02.928Z,21.63
2022-11-01T11:58:40.534Z,20.02
2022-11-01T12:01:07.637Z,17.15
2022-11-01T12:03:48.275Z,20.08
2022-11-01T12:06:23.627Z,13.77
2022-11-01T12:08:53.488Z,24.83
2022-11-01T12:11:22.940Z,22.35
2022-11-01T12:14:17.877Z,26.25
2022-11-01T12:16:45.139Z,23.73
2022-11-01T12:19:31.754Z,26.10
2022-11-01T12:22:01.792Z,25.83
2022-11-01T12:24:28.853Z,23.95
2022-11-01T12:27:01.849Z,25.42
2022-11-01T12:29:31.711Z,20.95
2022-11-01T12:32:06.213Z,25.38
2022-11-01T12:34:39.822Z,25.40
2022-11-01T12:37:31.585Z,19.20
2022-11-01T12:40:15.887Z,20.27
2022-11-01T12:42:57.390Z,26.38
2022-11-01T12:45:58.964Z,19.80
2022-11-01T12:48:33.485Z,32.85
2022-11-01T12:51:06.664Z,25.88
2022-11-01T12:53:47.349Z,16.83
2022-11-01T12:56:14.765Z,20.65
2022-11-01T12:58:41.940Z,22.23
2022-11-01T13:01:36.471Z,20.23
2022-11-01T13:04:37.211Z,26.48
2022-11-01T13:07:22.756Z,25.25
2022-11-01T13:10:14.228Z,26.20
2022-11-01T13:13:10.840Z,38.08
2022-11-01T13:15:37.920Z,25.98
2022-11-01T13:18:16.896Z,20.40
2022-11-01T13:20:54.476Z,31.30
2022-11-01T13:23:39.691Z,37.30
2022-11-01T13:26:17.280Z,20.73
2022-11-01T13:29:05.369Z,21.77
2022-11-01T13:31:44.593Z,28.15
2022-11-01T13:34:14.505Z,29.27
2022-11-01T13:37:13.464Z,26.30
2022-11-01T13:39:55.713Z,28.77
2022-11-01T13:42:39.844Z,38.30
2022-11-01T13:45:06.931Z,22.55
2022-11-01T13:47:49.022Z,24.85
2022-11-01T13:50:18.676Z,23.65
2022-11-01T13:52:51.027Z,21.70
2022-11-01T13:55:28.227Z,16.13
2022-11-01T13:57:55.401Z,14.43
2022-11-01T14:00:49.302Z,13.27
2022-11-01T14:03:30.941Z,14.00
2022-11-01T14:06:06.989Z,12.50
2022-11-01T14:08:42.101Z,16.33
2022-11-01T14:11:33.132Z,15.98
2022-11-01T14:14:00.263Z,16.23
2022-11-01T14:16:28.148Z,15.80
2022-11-01T14:19:02.583Z,14.95
2022-11-01T14:21:39.833Z,19.15
2022-11-01T14:24:07.852Z,12.85
2022-11-01T14:26:50.202Z,14.52
2022-11-01T14:29:17.401Z,15.30
2022-11-01T14:31:47.826Z,20.17
2022-11-01T14:34:28.403Z,26.95
2022-11-01T14:36:59.010Z,22.80
2022-11-01T14:40:07.212Z,17.08
2022-11-01T14:42:41.749Z,20.35
2022-11-01T14:45:33.050Z,19.10
2022-11-01T14:48:16.443Z,21.77
2022-11-01T14:51:19.902Z,18.77
2022-11-01T14:53:52.873Z,22.02
2022-11-01T14:56:22.050Z,17.08
2022-11-01T14:58:49.237Z,20.45
2022-11-01T15:01:19.191Z,23.92
2022-11-01T15:03:55.007Z,13.25
2022-11-01T15:06:24.869Z,16.65
2022-11-01T15:08:55.827Z,15.63
2022-11-01T15:11:27.636Z,19.60
2022-11-01T15:13:55.848Z,20.17
2022-11-01T15:16:26.850Z,22.67
2022-11-01T15:18:58.641Z,21.23
2022-11-01T15:21:30.775Z,16.05
2022-11-01T15:23:59.386Z,19.27
2022-11-01T15:26:36.216Z,15.10
2022-11-01T15:29:05.757Z,31.52
2022-11-01T15:31:38.001Z,49.83
2022-11-01T15:34:20.861Z,30.95
2022-11-01T15:36:47.965Z,20.93
2022-11-01T15:39:24.737Z,14.73
2022-11-01T15:41:55.143Z,12.82
2022-11-01T15:44:27.508Z,15.60
2022-11-01T15:46:58.854Z,16.45
2022-11-01T15:49:30.566Z,20.33
2022-11-01T15:52:19.782Z,13.75
2022-11-01T15:54:55.175Z,15.30
2022-11-01T15:57:31.062Z,12.68
2022-11-01T16:00:26.012Z,12.45
2022-11-01T16:03:04.342Z,19.92
2022-11-01T16:05:36.277Z,20.25
2022-11-01T16:08:07.791Z,16.40
2022-11-01T16:10:35.583Z,16.27
2022-11-01T16:13:04.451Z,13.45
2022-11-01T16:15:33.946Z,18.63
2022-11-01T16:18:13.911Z,19.35
2022-11-01T16:20:41.176Z,15.45
2022-11-01T16:23:14.443Z,21.38
2022-11-01T16:25:41.555Z,14.52
2022-11-01T16:28:08.632Z,15.05
2022-11-01T16:30:37.990Z,16.27
2022-11-01T16:33:07.953Z,14.43
2022-11-01T16:35:37.394Z,14.63
2022-11-01T16:38:32.958Z,15.75
2022-11-01T16:41:01.952Z,19.55
2022-11-01T16:43:31.989Z,20.67
2022-11-01T16:45:59.922Z,15.95
2022-11-01T16:48:29.908Z,17.50
2022-11-01T16:50:59.396Z,25.40
2022-11-01T16:53:31.879Z,17.20
2022-11-01T16:56:36.190Z,18.30
2022-11-01T16:59:27.064Z,23.85
2022-11-01T17:01:57.996Z,17.67
2022-11-01T17:04:29.425Z,14.75
2022-11-01T17:06:58.263Z,22.58
2022-11-01T17:09:30.822Z,17.05
2022-11-01T17:11:58.290Z,17.52
2022-11-01T17:14:26.242Z,18.42
2022-11-01T17:16:56.097Z,19.30
2022-11-01T17:19:31.116Z,21.17
2022-11-01T17:22:02.571Z,18.23
2022-11-01T17:24:33.182Z,13.70
2022-11-01T17:27:05.001Z,17.83
2022-11-01T17:29:33.092Z,17.63
2022-11-01T17:32:02.149Z,19.98
2022-11-01T17:34:29.544Z,22.27
2022-11-01T17:36:59.763Z,16.65
2022-11-01T17:39:28.898Z,18.15
2022-11-01T17:41:56.921Z,17.95
2022-11-01T17:44:24.049Z,21.48
2022-11-01T17:46:51.191Z,15.95
2022-11-01T17:49:21.494Z,21.85
2022-11-01T17:51:54.219Z,29.42
2022-11-01T17:54:22.880Z,27.63
2022-11-01T17:56:51.067Z,21.15
2022-11-01T17:59:18.643Z,17.73
2022-11-01T18:01:45.911Z,22.95
2022-11-01T18:04:13.184Z,19.90
2022-11-01T18:06:40.719Z,22.25
2022-11-01T18:09:24.067Z,19.02
2022-11-01T18:12:16.419Z,20.10
2022-11-01T18:15:03.085Z,25.73
2022-11-01T18:17:34.469Z,18.05
2022-11-01T18:20:07.824Z,20.63
2022-11-01T18:22:55.615Z,18.45
2022-11-01T18:25:36.489Z,16.80
2022-11-01T18:28:13.536Z,18.77
2022-11-01T18:30:54.358Z,20.10
2022-11-01T18:33:31.217Z,25.98
2022-11-01T18:36:12.197Z,20.45
2022-11-01T18:38:46.234Z,20.20
2022-11-01T18:41:19.854Z,22.98
2022-11-01T18:43:46.931Z,23.35
2022-11-01T18:46:29.388Z,23.65
2022-11-01T18:49:01.881Z,25.33
2022-11-01T18:51:34.271Z,24.63
2022-11-01T18:54:11.203Z,24.05
2022-11-01T18:56:46.190Z,20.45
2022-11-01T18:59:19.597Z,25.88
2022-11-01T19:01:55.372Z,23.33
2022-11-01T19:04:27.728Z,24.65
2022-11-01T19:07:07.252Z,22.52
2022-11-01T19:09:39.832Z,25.48
2022-11-01T19:12:22.635Z,25.15
2022-11-01T19:14:57.498Z,23.15
2022-11-01T19:17:27.333Z,20.73
2022-11-01T19:19:56.278Z,25.88
2022-11-01T19:22:36.680Z,22.73
2022-11-01T19:25:14.770Z,21.10
2022-11-01T19:27:42.393Z,22.45
2022-11-01T19:30:28.451Z,20.40
2022-11-01T19:33:17.653Z,25.08
2022-11-01T19:35:44.941Z,26.98
2022-11-01T19:38:15.932Z,28.23
2022-11-01T19:40:44.052Z,23.20
2022-11-01T19:43:16.840Z,26.60
2022-11-01T19:45:49.025Z,24.08
2022-11-01T19:48:20.543Z,19.33
2022-11-01T19:50:48.014Z,23.90
2022-11-01T19:53:27.461Z,24.27
2022-11-01T19:56:05.684Z,19.95
2022-11-01T19:58:42.012Z,24.17
2022-11-01T20:01:22.783Z,21.35
2022-11-01T20:04:21.901Z,23.70
2022-11-01T20:07:19.914Z,20.77
2022-11-01T20:09:48.111Z,24.75
2022-11-01T20:12:20.032Z,22.20
2022-11-01T20:14:49.092Z,21.55
2022-11-01T20:17:16.173Z,22.92
2022-11-01T20:19:45.083Z,20.35
2022-11-01T20:22:12.249Z,20.70
2022-11-01T20:24:39.389Z,19.33
2022-11-01T20:27:06.549Z,22.70
2022-11-01T20:29:33.623Z,21.80
2022-11-01T20:32:00.745Z,21.98
2022-11-01T20:34:28.728Z,22.75
2022-11-01T20:37:26.829Z,20.80
2022-11-01T20:39:43.493Z,19.48
2022-11-01T20:42:10.590Z,21.10
2022-11-01T20:44:37.716Z,24.70
2022-11-01T20:47:04.834Z,19.48
2022-11-01T20:49:31.942Z,22.40
2022-11-01T20:52:13.361Z,22.98
2022-11-01T20:54:46.449Z,26.85
2022-11-01T20:57:27.086Z,27.02
2022-11-01T20:59:55.614Z,26.58
2022-11-01T21:02:23.083Z,20.20
2022-11-01T21:04:59.163Z,24.25
2022-11-01T21:07:29.811Z,22.33
2022-11-01T21:09:57.161Z,26.38
2022-11-01T21:12:47.446Z,22.42
2022-11-01T21:15:23.524Z,24.48
2022-11-01T21:18:10.861Z,23.08
2022-11-01T21:20:40.037Z,19.02
2022-11-01T21:23:35.631Z,27.85
2022-11-01T21:26:24.073Z,24.67
2022-11-01T21:28:53.388Z,24.90
2022-11-01T21:31:26.177Z,21.98
2022-11-01T21:34:19.485Z,24.33
2022-11-01T21:36:48.014Z,23.33
2022-11-01T21:39:19.874Z,25.92
2022-11-01T21:41:51.897Z,25.95
2022-11-01T21:44:19.074Z,23.50
2022-11-01T21:46:48.680Z,28.58
2022-11-01T21:49:36.589Z,23.90
2022-11-01T21:52:06.533Z,27.70
2022-11-01T21:54:36.058Z,26.10
2022-11-01T21:57:05.467Z,26.13
2022-11-01T21:59:34.678Z,28.08
2022-11-01T22:02:03.960Z,27.52
2022-11-01T22:04:32.052Z,28.50
2022-11-01T22:07:05.129Z,23.52
2022-11-01T22:09:32.836Z,29.60
2022-11-01T22:12:01.096Z,30.35
2022-11-01T22:14:28.436Z,24.00
2022-11-01T22:16:55.689Z,32.95
2022-11-01T22:19:22.773Z,23.52
2022-11-01T22:21:50.037Z,23.92
2022-11-01T22:24:17.186Z,26.63
2022-11-01T22:26:44.355Z,26.52
2022-11-01T22:29:11.516Z,29.27
2022-11-01T22:31:38.607Z,26.73
2022-11-01T22:34:05.708Z,25.52
2022-11-01T22:36:35.844Z,27.25
2022-11-01T22:39:21.138Z,25.63
2022-11-01T22:41:48.488Z,24.90
2022-11-01T22:44:31.242Z,24.63
2022-11-01T22:47:02.797Z,21.83
2022-11-01T22:49:40.580Z,23.42
2022-11-01T22:52:26.825Z,27.33
2022-11-01T22:55:02.865Z,22.65
2022-11-01T22:57:34.563Z,27.80
2022-11-01T23:00:22.038Z,22.20
2022-11-01T23:02:49.419Z,27.40
2022-11-01T23:05:23.828Z,28.75
2022-11-01T23:07:53.855Z,25.15
2022-11-01T23:10:34.732Z,27.38
2022-11-01T23:13:37.196Z,20.75
2022-11-01T23:16:26.293Z,29.65
2022-11-01T23:18:57.564Z,27.17
2022-11-01T23:21:24.983Z,25.45
2022-11-01T23:23:52.263Z,22.77
2022-11-01T23:26:20.939Z,22.80
2022-11-01T23:28:54.492Z,24.70
2022-11-01T23:33:51.404Z,23.13
2022-11-01T23:36:18.610Z,24.27
2022-11-01T23:38:51.268Z,25.55
2022-11-01T23:41:37.856Z,22.17
2022-11-01T23:44:26.508Z,22.85
2022-11-01T23:46:58.657Z,21.52
2022-11-01T23:49:30.040Z,25.40
2022-11-01T23:51:58.666Z,20.73
2022-11-01T23:54:39.831Z,22.75
2022-11-01T23:57:10.840Z,25.92
2022-11-01T23:59:37.972Z,23.90
